Time;durP1;ratioP1;P1;durP2;ratioP2;P2;SDS_P1;SDS_P2;PMS_P1;PMS_P2;Temp;Humidity;BMP_temperature;BMP_pressure;BME280_temperature;BME280_humidity;BME280_pressure;Samples;Min_cycle;Max_cycle;Signal;HPM_P1;HPM_P2
2022/04/30 00:00:29;;;;;;;;;;;;;;;12.38;51.40;101388.97;5093096;28;19928;-51
2022/04/30 00:02:57;;;;;;;;;;;;;;;12.29;51.26;101374.03;5093704;28;19920;-51
2022/04/30 00:05:24;;;;;;;;;;;;;;;12.27;51.77;101379.09;5098327;28;19919;-54
2022/04/30 00:07:55;;;;;;;;;;;;;;;12.23;51.48;101372.47;5113847;28;19931;-50
2022/04/30 00:10:23;;;;;;;;;;;;;;;12.19;52.21;101378.63;5106382;28;19920;-52
2022/04/30 00:12:50;;;;;;;;;;;;;;;12.17;52.11;101372.53;5093199;28;19919;-57
2022/04/30 00:15:17;;;;;;;;;;;;;;;12.17;51.97;101382.88;5091970;28;20375;-54
2022/04/30 00:17:44;;;;;;;;;;;;;;;12.15;52.04;101387.94;5089913;28;19924;-59
2022/04/30 00:20:11;;;;;;;;;;;;;;;12.09;52.34;101392.75;5079341;28;19920;-57
2022/04/30 00:22:38;;;;;;;;;;;;;;;12.09;52.61;101392.75;5084751;28;20394;-58
2022/04/30 00:25:08;;;;;;;;;;;;;;;12.08;52.54;101387.50;5091753;28;20361;-59
2022/04/30 00:27:35;;;;;;;;;;;;;;;12.03;52.27;101377.22;5084860;28;19920;-59
2022/04/30 00:30:02;;;;;;;;;;;;;;;11.97;52.51;101381.25;5083560;28;19920;-58
2022/04/30 00:32:31;;;;;;;;;;;;;;;11.92;52.50;101375.72;5084432;28;20255;-59
2022/04/30 00:34:58;;;;;;;;;;;;;;;11.86;52.93;101385.25;5086402;28;19927;-57
2022/04/30 00:37:26;;;;;;;;;;;;;;;11.78;52.97;101373.66;5091353;28;19920;-58
2022/04/30 00:39:53;;;;;;;;;;;;;;;11.71;53.25;101381.53;5092273;28;20408;-59
2022/04/30 00:42:21;;;;;;;;;;;;;;;11.62;53.40;101374.97;5080862;28;20323;-59
2022/04/30 00:44:49;;;;;;;;;;;;;;;11.57;53.73;101377.84;5092771;28;19927;-59
2022/04/30 00:47:18;;;;;;;;;;;;;;;11.55;54.16;101377.31;5092737;28;19924;-57
2022/04/30 00:49:45;;;;;;;;;;;;;;;11.56;54.22;101378.97;5092514;28;19920;-58
2022/04/30 00:52:14;;;;;;;;;;;;;;;11.57;54.30;101377.84;5092143;28;19979;-59
2022/04/30 00:54:41;;;;;;;;;;;;;;;11.58;54.31;101376.69;5091305;28;19939;-59
2022/04/30 00:57:10;;;;;;;;;;;;;;;11.59;53.99;101381.16;5092718;28;19927;-58
2022/04/30 00:59:39;;;;;;;;;;;;;;;11.51;54.19;101379.03;5092181;28;19920;-59
2022/04/30 01:02:09;;;;;;;;;;;;;;;11.53;53.78;101374.81;5092122;28;19920;-59
2022/04/30 01:04:36;;;;;;;;;;;;;;;11.43;54.14;101380.53;5093182;28;19927;-57
2022/04/30 01:07:06;;;;;;;;;;;;;;;11.43;54.18;101374.94;5097183;28;19927;-59
2022/04/30 01:09:34;;;;;;;;;;;;;;;11.45;54.02;101371.84;5095622;28;19936;-59
2022/04/30 01:12:04;;;;;;;;;;;;;;;11.45;54.10;101371.84;5096008;28;19920;-59
2022/04/30 01:14:32;;;;;;;;;;;;;;;11.40;53.94;101371.91;5092441;28;19927;-59
2022/04/30 01:17:02;;;;;;;;;;;;;;;11.41;53.98;101373.59;5087857;28;19919;-59
2022/04/30 01:19:29;;;;;;;;;;;;;;;11.42;53.78;101372.44;5096035;28;19920;-59
2022/04/30 01:21:57;;;;;;;;;;;;;;;11.41;53.93;101373.59;5096290;28;19920;-59
2022/04/30 01:24:28;;;;;;;;;;;;;;;11.39;53.87;101359.94;5095490;28;19931;-59
2022/04/30 01:26:56;;;;;;;;;;;;;;;11.34;53.79;101363.63;5088361;28;19928;-59
2022/04/30 01:29:24;;;;;;;;;;;;;;;11.30;53.64;101356.16;5094168;28;19919;-59
2022/04/30 01:37:26;;;;;;;;;;;;;;;11.16;53.37;101339.28;5097006;28;19924;-59
2022/04/30 01:39:58;;;;;;;;;;;;;;;11.08;53.65;101335.19;5091269;28;20299;-59
2022/04/30 01:42:26;;;;;;;;;;;;;;;11.04;53.99;101336.09;5095824;28;19924;-59
2022/04/30 01:44:54;;;;;;;;;;;;;;;10.99;54.09;101330.59;5087464;28;20395;-59
2022/04/30 01:47:23;;;;;;;;;;;;;;;10.93;54.41;101333.41;5094105;28;19920;-59
2022/04/30 01:49:52;;;;;;;;;;;;;;;10.92;54.46;101334.56;5093704;28;19920;-59
2022/04/30 01:52:20;;;;;;;;;;;;;;;10.88;54.67;101333.47;5087974;28;19920;-59
2022/04/30 01:54:47;;;;;;;;;;;;;;;10.86;54.69;101329.34;5094077;28;19927;-59
2022/04/30 01:57:22;;;;;;;;;;;;;;;10.85;54.94;101327.66;5095576;28;20376;-59
2022/04/30 01:59:51;;;;;;;;;;;;;;;10.81;55.17;101324.63;5095232;28;20010;-59
2022/04/30 02:02:18;;;;;;;;;;;;;;;10.78;55.28;101330.78;5094822;28;19970;-59
2022/04/30 02:04:45;;;;;;;;;;;;;;;10.71;55.13;101327.53;5087883;28;19924;-58
2022/04/30 02:07:12;;;;;;;;;;;;;;;10.66;55.43;101325.63;5112438;28;19927;-59
2022/04/30 02:09:42;;;;;;;;;;;;;;;10.62;55.57;101321.75;5094156;28;19927;-58
2022/04/30 02:12:09;;;;;;;;;;;;;;;10.57;55.54;101317.06;5094890;28;20383;-59
2022/04/30 02:14:40;;;;;;;;;;;;;;;10.51;55.98;101321.03;5090826;28;19919;-58
2022/04/30 02:17:09;;;;;;;;;;;;;;;10.47;55.85;101316.34;5089269;28;19927;-59
2022/04/30 02:22:17;;;;;;;;;;;;;;;10.39;56.26;101309.44;5092990;28;19920;-59
2022/04/30 02:24:45;;;;;;;;;;;;;;;10.33;56.33;101310.59;5089316;28;19987;-59
2022/04/30 02:27:12;;;;;;;;;;;;;;;10.29;56.30;101313.16;5092484;28;19920;-58
2022/04/30 02:29:41;;;;;;;;;;;;;;;10.26;56.70;101307.31;5091596;28;20372;-59
2022/04/30 02:32:08;;;;;;;;;;;;;;;10.22;56.56;101311.78;5075986;28;20364;-58
2022/04/30 02:34:35;;;;;;;;;;;;;;;10.14;56.80;101307.66;5095307;28;19924;-59
2022/04/30 02:37:03;;;;;;;;;;;;;;;10.05;57.51;101306.66;5094796;28;19939;-59
2022/04/30 02:39:31;;;;;;;;;;;;;;;10.02;57.58;101308.06;5094206;28;19920;-56
2022/04/30 02:41:58;;;;;;;;;;;;;;;9.97;57.90;101310.88;5090639;28;19935;-59
2022/04/30 02:44:26;;;;;;;;;;;;;;;9.81;58.36;101309.34;5088113;28;19931;-57
2022/04/30 02:46:55;;;;;;;;;;;;;;;9.74;58.49;101310.50;5094996;28;19920;-56
2022/04/30 02:49:22;;;;;;;;;;;;;;;9.67;58.80;101307.19;5093879;28;20399;-59
2022/04/30 02:52:00;;;;;;;;;;;;;;;9.62;58.91;101310.00;5093707;28;19927;-58
2022/04/30 02:54:27;;;;;;;;;;;;;;;9.52;59.50;101312.84;5093672;28;20029;-59
2022/04/30 02:56:54;;;;;;;;;;;;;;;9.42;59.63;101308.16;5086971;28;19919;-59
2022/04/30 03:02:06;;;;;;;;;;;;;;;9.27;60.80;101305.47;5087374;28;19924;-59
2022/04/30 03:04:36;;;;;;;;;;;;;;;9.24;60.76;101309.66;5085745;28;19920;-59
2022/04/30 03:07:03;;;;;;;;;;;;;;;9.26;60.98;101304.63;5097509;28;20360;-58
2022/04/30 03:09:30;;;;;;;;;;;;;;;9.24;61.37;101295.75;5087186;28;19920;-59
2022/04/30 03:11:58;;;;;;;;;;;;;;;9.23;61.35;101305.19;5085559;28;19943;-59
2022/04/30 03:14:25;;;;;;;;;;;;;;;9.24;61.72;101301.31;5093788;28;19920;-59
2022/04/30 03:22:21;;;;;;;;;;;;;;;9.37;61.49;101293.47;5086438;28;19920;-58
2022/04/30 03:24:48;;;;;;;;;;;;;;;9.41;61.46;101295.38;5092659;28;20265;-59
2022/04/30 03:27:17;;;;;;;;;;;;;;;9.49;61.04;101296.72;5093336;28;19924;-59
2022/04/30 03:29:46;;;;;;;;;;;;;;;9.49;60.77;101286.44;5091521;28;19943;-59
2022/04/30 03:32:13;;;;;;;;;;;;;;;9.53;60.92;101289.47;5091615;28;19920;-59
2022/04/30 03:34:41;;;;;;;;;;;;;;;9.57;60.58;101285.00;5093627;28;19920;-59
2022/04/30 03:37:08;;;;;;;;;;;;;;;9.59;60.43;101285.53;5093620;28;19920;-59
2022/04/30 03:39:35;;;;;;;;;;;;;;;9.61;60.50;101280.50;5092488;28;19924;-59
2022/04/30 03:42:02;;;;;;;;;;;;;;;9.62;60.96;101289.72;5089690;28;19943;-57
2022/04/30 03:44:29;;;;;;;;;;;;;;;9.62;60.66;101290.53;5093411;28;19920;-59
2022/04/30 03:46:56;;;;;;;;;;;;;;;9.66;60.72;101280.50;5091864;28;19920;-59
2022/04/30 03:49:23;;;;;;;;;;;;;;;9.71;60.31;101290.75;5092025;28;20357;-58
2022/04/30 03:51:54;;;;;;;;;;;;;;;9.71;60.33;101283.22;5085384;28;19920;-55
2022/04/30 03:54:21;;;;;;;;;;;;;;;9.74;60.53;101282.66;5084004;28;20292;-59
2022/04/30 03:56:48;;;;;;;;;;;;;;;9.79;60.26;101289.31;5093510;28;20368;-57
2022/04/30 03:59:16;;;;;;;;;;;;;;;9.80;60.63;101291.78;5092044;28;19924;-58
2022/04/30 04:01:43;;;;;;;;;;;;;;;9.85;60.19;101293.69;5093035;28;19920;-57
2022/04/30 04:04:10;;;;;;;;;;;;;;;9.90;60.08;101296.47;5085027;28;19942;-59
2022/04/30 04:06:37;;;;;;;;;;;;;;;9.91;60.22;101281.41;5101606;28;19919;-59
2022/04/30 04:09:05;;;;;;;;;;;;;;;9.96;60.00;101295.31;5099284;28;19920;-59
2022/04/30 04:11:32;;;;;;;;;;;;;;;9.98;60.10;101287.50;5092470;28;19920;-59
2022/04/30 04:19:30;;;;;;;;;;;;;;;9.99;60.09;101289.13;5098994;28;19920;-56
2022/04/30 04:21:57;;;;;;;;;;;;;;;10.02;59.76;101290.53;5090661;28;19920;-59
2022/04/30 04:27:10;;;;;;;;;;;;;;;10.06;59.38;101292.44;5094200;28;19927;-58
2022/04/30 04:29:38;;;;;;;;;;;;;;;10.04;59.81;101293.88;5089155;28;19920;-59
2022/04/30 04:32:05;;;;;;;;;;;;;;;10.07;59.78;101288.53;5093031;28;20372;-58
2022/04/30 04:34:34;;;;;;;;;;;;;;;10.15;59.18;101295.44;5083739;28;19920;-57
2022/04/30 04:37:04;;;;;;;;;;;;;;;10.12;59.31;101294.06;5088814;28;20396;-59
2022/04/30 04:39:32;;;;;;;;;;;;;;;10.09;59.68;101294.63;5090775;28;20315;-59
2022/04/30 04:41:59;;;;;;;;;;;;;;;10.11;59.56;101300.75;5092156;28;19927;-59
2022/04/30 04:44:26;;;;;;;;;;;;;;;10.10;59.51;101303.81;5091997;28;19931;-59
2022/04/30 04:46:53;;;;;;;;;;;;;;;10.14;59.31;101299.31;5091916;28;19927;-59
2022/04/30 04:49:20;;;;;;;;;;;;;;;10.15;59.39;101301.00;5077387;28;19920;-59
2022/04/30 04:51:47;;;;;;;;;;;;;;;10.13;59.25;101301.28;5091759;28;19931;-58
2022/04/30 04:54:15;;;;;;;;;;;;;;;10.04;59.64;101303.03;5081932;28;19920;-59
2022/04/30 04:56:44;;;;;;;;;;;;;;;10.11;59.18;101305.47;5091717;28;20272;-56
2022/04/30 04:59:12;;;;;;;;;;;;;;;10.10;59.40;101304.66;5085785;28;19925;-58
2022/04/30 05:01:40;;;;;;;;;;;;;;;10.13;59.40;101304.06;5086502;28;19920;-59
2022/04/30 05:04:10;;;;;;;;;;;;;;;10.12;59.49;101309.91;5089393;28;19924;-58
2022/04/30 05:06:37;;;;;;;;;;;;;;;10.19;59.56;101315.19;5089173;28;19947;-58
2022/04/30 05:09:04;;;;;;;;;;;;;;;10.25;59.58;101314.00;5092344;28;19920;-59
2022/04/30 05:11:31;;;;;;;;;;;;;;;10.33;59.54;101321.75;5082881;28;20385;-59
2022/04/30 05:13:59;;;;;;;;;;;;;;;10.42;59.11;101327.53;5092254;28;20288;-59
2022/04/30 05:16:26;;;;;;;;;;;;;;;10.43;59.02;101318.03;5086170;28;19924;-59
2022/04/30 05:18:53;;;;;;;;;;;;;;;10.57;58.75;101328.22;5091685;28;19920;-58
2022/04/30 05:21:20;;;;;;;;;;;;;;;10.69;58.34;101325.03;5086581;28;20364;-55
2022/04/30 05:23:50;;;;;;;;;;;;;;;10.81;58.16;101321.81;5091156;28;19931;-57
2022/04/30 05:26:17;;;;;;;;;;;;;;;10.99;57.79;101322.22;5091692;28;19930;-59
2022/04/30 05:28:44;;;;;;;;;;;;;;;11.13;57.19;101317.59;5091505;28;19920;-59
2022/04/30 05:31:12;;;;;;;;;;;;;;;11.20;57.06;101317.22;5081736;28;19920;-59
2022/04/30 05:33:39;;;;;;;;;;;;;;;11.23;56.27;101317.44;5091555;28;19920;-59
2022/04/30 05:36:07;;;;;;;;;;;;;;;11.35;56.26;101319.81;5084256;28;20344;-58
2022/04/30 05:38:34;;;;;;;;;;;;;;;11.46;56.33;101317.72;5091112;28;19927;-57
2022/04/30 05:41:01;;;;;;;;;;;;;;;11.63;55.92;101323.59;5086377;28;19920;-58
2022/04/30 05:43:28;;;;;;;;;;;;;;;11.78;55.67;101320.63;5091391;28;19927;-59
2022/04/30 05:45:55;;;;;;;;;;;;;;;11.88;54.80;101328.00;5083246;28;19920;-59
2022/04/30 05:48:23;;;;;;;;;;;;;;;11.89;54.95;101332.47;5089849;28;19941;-58
2022/04/30 05:50:52;;;;;;;;;;;;;;;11.98;54.17;101324.25;5091345;28;20090;-59
2022/04/30 05:53:19;;;;;;;;;;;;;;;12.05;54.07;101324.69;5094098;28;19920;-59
2022/04/30 05:55:45;;;;;;;;;;;;;;;12.04;53.68;101328.63;5090059;28;20289;-59
2022/04/30 05:58:12;;;;;;;;;;;;;;;12.15;54.02;101329.28;5088332;28;20314;-59
2022/04/30 06:00:39;;;;;;;;;;;;;;;12.18;53.51;101329.50;5093967;28;20261;-58
2022/04/30 06:03:07;;;;;;;;;;;;;;;12.19;53.14;101335.94;5095354;28;19920;-59
2022/04/30 06:05:37;;;;;;;;;;;;;;;12.17;53.06;101333.44;5094838;28;20364;-58
2022/04/30 06:08:04;;;;;;;;;;;;;;;12.04;53.59;101331.41;5087975;28;19920;-59
2022/04/30 06:10:31;;;;;;;;;;;;;;;11.93;53.84;101344.69;5091426;28;19921;-54
2022/04/30 06:12:58;;;;;;;;;;;;;;;11.96;53.73;101340.47;5090773;28;19920;-59
2022/04/30 06:15:25;;;;;;;;;;;;;;;12.05;53.81;101335.84;5091354;28;19927;-58
2022/04/30 06:17:52;;;;;;;;;;;;;;;12.18;53.86;101337.91;5089604;28;20380;-58
2022/04/30 06:20:19;;;;;;;;;;;;;;;12.22;53.25;101337.28;5094706;28;19920;-58
2022/04/30 06:23:01;;;;;;;;;;;;;;;12.29;53.55;101340.53;5087396;28;19927;-57
2022/04/30 06:25:34;;;;;;;;;;;;;;;12.42;53.35;101338.91;5072042;28;19921;-58
2022/04/30 06:28:02;;;;;;;;;;;;;;;12.48;53.10;101340.47;5084077;28;19920;-58
2022/04/30 06:30:32;;;;;;;;;;;;;;;12.47;53.11;101336.84;5094182;28;19943;-57
2022/04/30 06:32:59;;;;;;;;;;;;;;;12.51;52.85;101342.66;5087319;28;20368;-58
2022/04/30 06:35:26;;;;;;;;;;;;;;;12.48;52.71;101338.50;5085678;28;19928;-58
2022/04/30 06:37:53;;;;;;;;;;;;;;;12.40;53.19;101347.59;5088439;28;19935;-58
2022/04/30 06:40:21;;;;;;;;;;;;;;;12.37;53.08;101351.00;5093046;28;19920;-57
2022/04/30 06:42:49;;;;;;;;;;;;;;;12.33;53.06;101349.97;5093005;28;20391;-58
2022/04/30 06:45:17;;;;;;;;;;;;;;;12.27;53.34;101351.16;5091837;28;20344;-58
2022/04/30 06:47:44;;;;;;;;;;;;;;;12.30;53.19;101345.78;5090309;28;19927;-57
2022/04/30 06:50:11;;;;;;;;;;;;;;;12.21;53.11;101346.81;5093797;28;19920;-58
2022/04/30 06:57:07;;;;;;;;;;;;;;;12.24;53.44;101348.97;5093092;28;20289;-58
2022/04/30 06:58:12;;;;;;;;;;;;;;;12.27;53.67;101342.78;5093987;28;19920;-58
2022/04/30 07:03:23;;;;;;;;;;;;;;;12.46;52.96;101343.56;5088627;28;19920;-58
2022/04/30 07:05:50;;;;;;;;;;;;;;;12.61;53.07;101339.69;5087760;28;19927;-58
2022/04/30 07:08:18;;;;;;;;;;;;;;;12.74;52.54;101340.84;5091237;28;20288;-58
2022/04/30 07:10:45;;;;;;;;;;;;;;;12.95;52.04;101342.09;5093442;28;19920;-57
2022/04/30 07:13:13;;;;;;;;;;;;;;;13.21;51.92;101347.22;5092614;28;19920;-58
2022/04/30 07:15:40;;;;;;;;;;;;;;;13.41;51.02;101340.38;5084901;28;20299;-58
2022/04/30 07:18:07;;;;;;;;;;;;;;;13.62;50.68;101339.94;5085722;28;19928;-58
2022/04/30 07:20:35;;;;;;;;;;;;;;;13.88;49.63;101338.25;5093994;28;19990;-58
2022/04/30 07:23:02;;;;;;;;;;;;;;;14.06;48.93;101339.19;5080352;28;20039;-58
2022/04/30 07:25:29;;;;;;;;;;;;;;;14.65;48.08;101333.53;5069294;28;19920;-58
2022/04/30 07:27:56;;;;;;;;;;;;;;;15.23;46.88;101337.28;5065085;28;19928;-58
2022/04/30 07:30:24;;;;;;;;;;;;;;;15.66;45.58;101333.75;5072377;28;19927;-58
2022/04/30 07:32:51;;;;;;;;;;;;;;;16.38;44.39;101325.88;5073508;28;19921;-58
2022/04/30 07:35:19;;;;;;;;;;;;;;;16.35;44.07;101321.72;5065622;28;19932;-57
2022/04/30 07:37:46;;;;;;;;;;;;;;;16.26;44.13;101323.72;5059505;28;19921;-58
2022/04/30 07:40:13;;;;;;;;;;;;;;;16.42;44.31;101327.69;5060967;28;20368;-58
2022/04/30 07:42:40;;;;;;;;;;;;;;;16.41;43.79;101317.59;5072493;28;19921;-59
2022/04/30 07:45:08;;;;;;;;;;;;;;;16.35;43.28;101330.16;5070985;28;19924;-59
2022/04/30 07:47:36;;;;;;;;;;;;;;;16.31;42.83;101331.97;5073290;28;19927;-59
2022/04/30 07:50:04;;;;;;;;;;;;;;;16.19;43.28;101332.69;5079545;28;19928;-60
2022/04/30 07:52:32;;;;;;;;;;;;;;;16.14;42.63;101332.81;5073211;28;19920;-60
2022/04/30 07:55:01;;;;;;;;;;;;;;;16.07;42.23;101326.06;5072647;28;20293;-60
2022/04/30 07:57:28;;;;;;;;;;;;;;;15.81;41.80;101330.53;5061522;28;19921;-59
2022/04/30 07:59:55;;;;;;;;;;;;;;;16.55;41.32;101328.66;5078599;28;19942;-60
2022/04/30 08:02:22;;;;;;;;;;;;;;;17.09;41.01;101322.53;5071599;28;19921;-59
2022/04/30 08:04:50;;;;;;;;;;;;;;;17.60;39.58;101314.16;5070944;28;19921;-60
2022/04/30 08:07:18;;;;;;;;;;;;;;;17.93;38.23;101313.44;5070949;28;20269;-60
2022/04/30 08:09:44;;;;;;;;;;;;;;;18.96;37.33;101312.75;5071914;28;19927;-60
2022/04/30 08:12:12;;;;;;;;;;;;;;;19.50;36.06;101314.53;5073698;28;19920;-60
2022/04/30 08:14:39;;;;;;;;;;;;;;;19.44;35.04;101313.94;5071719;28;20462;-60
2022/04/30 08:17:06;;;;;;;;;;;;;;;19.77;33.95;101319.44;5071272;28;19927;-60
2022/04/30 08:19:33;;;;;;;;;;;;;;;19.67;32.97;101319.91;5066936;28;19921;-59
2022/04/30 08:22:01;;;;;;;;;;;;;;;19.31;33.49;101318.75;5067089;28;20236;-60
2022/04/30 08:24:32;;;;;;;;;;;;;;;19.50;33.51;101314.53;5078667;28;19920;-60
2022/04/30 08:27:00;;;;;;;;;;;;;;;19.78;33.79;101318.28;5091951;28;19924;-60
2022/04/30 08:29:28;;;;;;;;;;;;;;;19.97;33.55;101309.16;5084932;28;19932;-60
2022/04/30 08:31:55;;;;;;;;;;;;;;;20.31;32.97;101315.38;5091803;28;19920;-60
2022/04/30 08:34:22;;;;;;;;;;;;;;;20.64;31.72;101303.81;5092041;28;19935;-60
2022/04/30 08:36:49;;;;;;;;;;;;;;;20.65;31.33;101308.28;5090460;28;19924;-60
2022/04/30 08:39:17;;;;;;;;;;;;;;;21.60;30.81;101300.94;5088247;28;19920;-60
2022/04/30 08:41:44;;;;;;;;;;;;;;;21.90;29.89;101306.88;5089528;28;19935;-61
2022/04/30 08:44:14;;;;;;;;;;;;;;;22.39;29.22;101306.31;5088463;28;19927;-60
2022/04/30 08:46:44;;;;;;;;;;;;;;;22.50;29.35;101306.53;5081673;28;19920;-58
2022/04/30 08:49:12;;;;;;;;;;;;;;;23.67;28.16;101303.25;5091013;28;19927;-58
2022/04/30 08:51:39;;;;;;;;;;;;;;;24.87;26.50;101305.16;5084130;28;19995;-58
2022/04/30 08:54:06;;;;;;;;;;;;;;;24.86;25.85;101308.38;5083938;28;19920;-59
2022/04/30 08:56:36;;;;;;;;;;;;;;;24.17;25.46;101305.97;5091957;28;19920;-59
2022/04/30 08:59:04;;;;;;;;;;;;;;;24.26;26.31;101313.00;5091076;28;19924;-59
2022/04/30 09:01:35;;;;;;;;;;;;;;;25.55;25.40;101298.38;5091037;28;20308;-59
2022/04/30 09:04:03;;;;;;;;;;;;;;;26.78;24.13;101303.44;5090098;28;20524;-59
2022/04/30 09:06:30;;;;;;;;;;;;;;;27.92;21.59;101291.91;5095055;28;19927;-59
2022/04/30 09:08:56;;;;;;;;;;;;;;;29.12;20.92;101292.88;5090809;28;19920;-59
2022/04/30 09:11:32;;;;;;;;;;;;;;;28.52;20.53;101292.06;5090938;28;19927;-60
2022/04/30 09:14:01;;;;;;;;;;;;;;;27.65;21.31;101288.69;5086709;28;19924;-60
2022/04/30 09:16:28;;;;;;;;;;;;;;;26.80;22.24;101289.56;5091695;28;19928;-60
2022/04/30 09:19:01;;;;;;;;;;;;;;;25.85;22.65;101292.44;5090215;28;19920;-59
2022/04/30 09:21:28;;;;;;;;;;;;;;;24.64;24.42;101305.31;5090747;28;20280;-59
2022/04/30 09:24:02;;;;;;;;;;;;;;;23.93;25.01;101296.72;5073195;28;19920;-59
2022/04/30 09:26:38;;;;;;;;;;;;;;;23.44;25.69;101295.59;5085223;28;19928;-58
2022/04/30 09:29:18;;;;;;;;;;;;;;;23.33;26.03;101293.78;5093060;28;19946;-59
2022/04/30 09:31:49;;;;;;;;;;;;;;;22.79;25.17;101290.03;5069409;28;19919;-57
2022/04/30 09:39:42;;;;;;;;;;;;;;;23.64;25.30;101278.41;5094418;28;19919;-59
2022/04/30 09:42:09;;;;;;;;;;;;;;;25.20;23.85;101269.22;5094819;28;19928;-58
2022/04/30 09:44:38;;;;;;;;;;;;;;;26.81;22.68;101265.44;5095114;28;19920;-59
2022/04/30 09:47:05;;;;;;;;;;;;;;;28.49;20.46;101262.19;5094987;28;19927;-60
2022/04/30 09:55:01;;;;;;;;;;;;;;;30.82;17.17;101260.88;5101177;28;19923;-60
2022/04/30 09:57:30;;;;;;;;;;;;;;;30.23;17.45;101253.53;5084062;28;20005;-60
2022/04/30 10:00:00;;;;;;;;;;;;;;;29.97;18.36;101255.13;5092269;28;19927;-59
2022/04/30 10:02:28;;;;;;;;;;;;;;;31.19;17.81;101259.06;5114218;28;19927;-60
2022/04/30 10:04:55;;;;;;;;;;;;;;;32.10;16.86;101251.91;5115050;28;19927;-60
2022/04/30 10:07:24;;;;;;;;;;;;;;;32.96;15.59;101247.00;5116299;28;19920;-60
2022/04/30 10:09:55;;;;;;;;;;;;;;;33.33;15.17;101246.94;5114761;28;19924;-60
2022/04/30 10:12:26;;;;;;;;;;;;;;;34.41;14.97;101243.81;5114059;28;19920;-61
2022/04/30 10:15:04;;;;;;;;;;;;;;;35.13;14.81;101240.16;5113859;28;20711;-60
2022/04/30 10:17:33;;;;;;;;;;;;;;;35.61;14.15;101233.50;5114440;28;19926;-61
2022/04/30 10:20:01;;;;;;;;;;;;;;;36.36;13.11;101245.97;5114338;28;19920;-61
2022/04/30 10:22:28;;;;;;;;;;;;;;;36.26;13.55;101238.50;5115146;28;19920;-57
2022/04/30 10:24:57;;;;;;;;;;;;;;;36.11;12.94;101241.13;5113502;28;19926;-58
2022/04/30 10:27:24;;;;;;;;;;;;;;;34.72;13.60;101246.94;5114347;28;19920;-57
2022/04/30 10:29:52;;;;;;;;;;;;;;;34.51;13.72;101243.44;5109986;28;19930;-55
2022/04/30 10:32:34;;;;;;;;;;;;;;;33.07;14.48;101241.00;5113767;28;20295;-52
2022/04/30 10:35:06;;;;;;;;;;;;;;;33.56;14.55;101243.78;5111494;28;20407;-57
2022/04/30 10:37:34;;;;;;;;;;;;;;;33.62;14.40;101240.34;5113251;28;19919;-57
2022/04/30 10:40:02;;;;;;;;;;;;;;;33.00;14.94;101241.16;5113958;28;20534;-57
2022/04/30 10:42:30;;;;;;;;;;;;;;;33.89;14.58;101234.19;5113716;27;19920;-57
2022/04/30 10:44:58;;;;;;;;;;;;;;;34.46;14.20;101223.78;5113664;28;19920;-57
2022/04/30 10:47:24;;;;;;;;;;;;;;;35.87;13.96;101223.44;5115090;28;19931;-58
2022/04/30 10:49:51;;;;;;;;;;;;;;;36.93;13.37;101212.94;5113788;28;19931;-58
2022/04/30 10:52:21;;;;;;;;;;;;;;;37.80;12.38;101210.75;5114185;27;19926;-58
2022/04/30 10:54:50;;;;;;;;;;;;;;;38.29;11.69;101212.56;5114410;28;19939;-56
2022/04/30 10:57:17;;;;;;;;;;;;;;;39.21;11.46;101198.78;5115071;28;19927;-58
2022/04/30 10:59:44;;;;;;;;;;;;;;;39.75;10.64;101193.78;5114052;28;19943;-58
2022/04/30 11:02:12;;;;;;;;;;;;;;;39.85;10.07;101198.22;5114207;28;19930;-58
2022/04/30 11:04:42;;;;;;;;;;;;;;;40.38;10.53;101202.31;5113059;28;19971;-59
2022/04/30 11:07:09;;;;;;;;;;;;;;;39.78;10.90;101198.63;5112993;27;19927;-58
2022/04/30 11:09:43;;;;;;;;;;;;;;;38.17;10.92;101201.94;5113043;28;19919;-58
2022/04/30 11:12:13;;;;;;;;;;;;;;;36.60;11.54;101207.66;5113457;28;19919;-58
2022/04/30 11:14:40;;;;;;;;;;;;;;;35.38;12.08;101206.59;5113677;28;19926;-57
2022/04/30 11:17:07;;;;;;;;;;;;;;;35.47;12.69;101195.09;5113960;28;19927;-58
2022/04/30 11:19:39;;;;;;;;;;;;;;;35.39;13.21;101185.06;5114622;28;19920;-58
2022/04/30 11:22:08;;;;;;;;;;;;;;;33.99;14.02;101203.38;5113123;28;19926;-57
2022/04/30 11:24:37;;;;;;;;;;;;;;;33.50;14.12;101193.63;5112580;28;19919;-58
2022/04/30 11:27:08;;;;;;;;;;;;;;;33.99;14.38;101192.59;5112712;28;19920;-58
2022/04/30 11:29:36;;;;;;;;;;;;;;;34.74;13.62;101184.44;5110289;27;19927;-58
2022/04/30 11:32:04;;;;;;;;;;;;;;;34.63;13.32;101178.19;5085503;27;19927;-58
2022/04/30 11:34:31;;;;;;;;;;;;;;;35.21;12.44;101173.31;5110661;28;19927;-58
2022/04/30 11:36:58;;;;;;;;;;;;;;;35.73;12.90;101174.69;5110972;27;20275;-56
2022/04/30 11:39:26;;;;;;;;;;;;;;;36.17;12.47;101180.44;5110934;28;19924;-57
2022/04/30 11:41:54;;;;;;;;;;;;;;;36.24;12.29;101168.53;5111836;28;19923;-57
2022/04/30 11:44:23;;;;;;;;;;;;;;;36.95;12.45;101169.72;5113696;28;19919;-58
2022/04/30 11:46:51;;;;;;;;;;;;;;;37.27;12.05;101162.47;5113974;28;19919;-57
2022/04/30 11:49:19;;;;;;;;;;;;;;;36.40;12.28;101152.16;5112779;28;19926;-57
2022/04/30 11:51:48;;;;;;;;;;;;;;;35.22;12.39;101169.16;5113154;27;19920;-57
2022/04/30 11:54:18;;;;;;;;;;;;;;;34.94;12.93;101163.06;5113310;28;20360;-57
2022/04/30 11:56:46;;;;;;;;;;;;;;;35.43;13.46;101159.66;5113987;28;19919;-55
2022/04/30 11:59:13;;;;;;;;;;;;;;;35.06;12.86;101164.31;5113290;28;19923;-57
2022/04/30 12:01:43;;;;;;;;;;;;;;;34.16;13.72;101170.22;5113433;28;20029;-57
2022/04/30 12:04:11;;;;;;;;;;;;;;;32.56;14.73;101174.28;5112199;28;19919;-52
2022/04/30 12:06:39;;;;;;;;;;;;;;;31.79;15.41;101175.59;5113286;28;19931;-57
2022/04/30 12:09:15;;;;;;;;;;;;;;;31.29;15.69;101171.66;5112899;28;20380;-55
2022/04/30 12:11:43;;;;;;;;;;;;;;;31.78;15.45;101171.13;5113244;28;20115;-57
2022/04/30 12:14:11;;;;;;;;;;;;;;;32.11;15.03;101163.41;5112888;28;19920;-55
2022/04/30 12:16:39;;;;;;;;;;;;;;;32.64;14.98;101155.53;5113338;28;19927;-56
2022/04/30 12:24:43;;;;;;;;;;;;;;;32.62;15.75;101146.50;5103681;28;19919;-56
2022/04/30 12:27:11;;;;;;;;;;;;;;;33.01;14.85;101146.72;5113116;28;19943;-55
2022/04/30 12:29:38;;;;;;;;;;;;;;;32.90;14.99;101149.91;5112114;28;19927;-57
2022/04/30 12:32:07;;;;;;;;;;;;;;;33.30;14.18;101138.88;5113266;28;20275;-53
2022/04/30 12:34:39;;;;;;;;;;;;;;;33.52;14.00;101136.19;5112666;28;19927;-57
2022/04/30 12:37:07;;;;;;;;;;;;;;;33.07;14.48;101137.06;5110758;28;19930;-57
2022/04/30 12:39:36;;;;;;;;;;;;;;;32.31;14.89;101141.06;5112667;28;20026;-57
2022/04/30 12:42:04;;;;;;;;;;;;;;;31.14;15.54;101131.66;5112699;28;19924;-57
2022/04/30 12:44:31;;;;;;;;;;;;;;;30.17;16.14;101135.34;5112678;28;19919;-56
2022/04/30 12:46:58;;;;;;;;;;;;;;;29.02;17.22;101133.94;5112964;28;19920;-57
2022/04/30 12:49:28;;;;;;;;;;;;;;;28.00;18.34;101134.38;5112533;28;19920;-54
2022/04/30 12:51:56;;;;;;;;;;;;;;;27.52;19.00;101142.34;5111849;28;19920;-57
2022/04/30 12:54:23;;;;;;;;;;;;;;;27.72;19.63;101144.75;5111313;28;20117;-56
2022/04/30 12:56:50;;;;;;;;;;;;;;;28.02;18.16;101135.59;5112612;28;19928;-56
2022/04/30 12:59:17;;;;;;;;;;;;;;;28.09;18.47;101129.78;5112421;28;19920;-54
2022/04/30 13:01:44;;;;;;;;;;;;;;;28.56;18.41;101125.78;5111368;28;19920;-56
2022/04/30 13:04:12;;;;;;;;;;;;;;;28.98;18.49;101121.69;5112122;28;19920;-57
2022/04/30 13:06:39;;;;;;;;;;;;;;;29.17;17.91;101113.72;5112193;28;19924;-57
2022/04/30 13:14:36;;;;;;;;;;;;;;;28.20;17.95;101109.69;5117856;28;19920;-57
2022/04/30 13:17:04;;;;;;;;;;;;;;;28.39;18.91;101108.31;5110743;28;19923;-57
2022/04/30 13:19:32;;;;;;;;;;;;;;;27.69;19.70;101105.47;5110961;28;19920;-55
2022/04/30 13:22:01;;;;;;;;;;;;;;;27.65;19.37;101108.34;5110703;28;19920;-57
2022/04/30 13:24:30;;;;;;;;;;;;;;;27.10;20.34;101104.06;5111372;28;20390;-57
2022/04/30 13:26:58;;;;;;;;;;;;;;;26.72;20.11;101106.59;5110094;28;20296;-51
2022/04/30 13:29:25;;;;;;;;;;;;;;;26.62;20.16;101100.91;5110997;28;20268;-57
2022/04/30 13:31:53;;;;;;;;;;;;;;;26.93;20.75;101096.34;5110611;28;19927;-53
2022/04/30 13:34:21;;;;;;;;;;;;;;;27.28;19.35;101091.78;5111211;28;19926;-56